Terminal Aerodrome Forecast
Issued by NWS

Home | Current Version | Previous Version | Text Only | Print | Product List | Glossary On
Versions: 1 2 3 4 5 6 7 8 9 10 11 12 13 14 15 16 17 18 19 20 21
409
FTUS41 KBTV 241720
TAFSLK
TAF
KSLK 241720Z 2418/2518 26011G18KT P6SM FEW060
     FM250000 24005KT P6SM FEW060
     FM250700 00000KT 5SM BR SCT008
     FM250800 00000KT 2SM BR BKN003
     FM251100 VRB02KT P6SM SCT015
     FM251400 23006KT P6SM SCT045=

USA.gov is the U.S. government's official web portal to all federal, state and local government web resources and services.